createdAt,value
2022-10-11T00:05:00.996Z,72.60
2022-10-11T00:10:15.152Z,72.75
2022-10-11T00:15:26.911Z,72.90
2022-10-11T00:20:40.854Z,73.30
2022-10-11T00:26:01.066Z,72.71
2022-10-11T00:31:16.831Z,72.78
2022-10-11T00:36:28.491Z,72.53
2022-10-11T00:41:31.257Z,72.45
2022-10-11T00:46:34.081Z,72.22
2022-10-11T00:51:51.991Z,72.61
2022-10-11T00:57:12.992Z,73.33
2022-10-11T01:02:27.077Z,73.20
2022-10-11T01:07:40.098Z,73.14
2022-10-11T01:13:11.422Z,73.10
2022-10-11T01:19:01.060Z,72.73
2022-10-11T01:24:24.005Z,72.79
2022-10-11T01:30:17.519Z,72.60
2022-10-11T01:35:37.629Z,72.20
2022-10-11T01:41:19.967Z,71.47
2022-10-11T01:46:35.408Z,70.90
2022-10-11T01:51:53.441Z,70.25
2022-10-11T01:57:42.673Z,69.50
2022-10-11T02:03:19.768Z,69.08
2022-10-11T02:08:41.835Z,68.49
2022-10-11T02:14:12.768Z,67.27
2022-10-11T02:19:29.362Z,67.29
2022-10-11T02:24:45.991Z,66.74
2022-10-11T02:30:01.550Z,67.02
2022-10-11T02:35:17.578Z,66.95
2022-10-11T02:40:42.267Z,67.31
2022-10-11T02:46:03.502Z,66.75
2022-10-11T02:51:18.257Z,66.68
2022-10-11T02:56:31.810Z,66.11
2022-10-11T03:01:45.346Z,66.03
2022-10-11T03:06:58.686Z,65.24
2022-10-11T03:12:12.684Z,65.54
2022-10-11T03:17:42.832Z,64.94
2022-10-11T03:22:56.407Z,64.96
2022-10-11T03:28:08.369Z,64.42
2022-10-11T03:33:22.284Z,63.98
2022-10-11T03:38:37.316Z,63.29
2022-10-11T03:43:52.239Z,63.37
2022-10-11T03:49:07.374Z,62.92
2022-10-11T03:54:22.332Z,61.86
2022-10-11T03:59:37.386Z,61.13
2022-10-11T04:04:52.291Z,60.86
2022-10-11T04:10:06.244Z,60.31
2022-10-11T04:15:18.649Z,59.25
2022-10-11T04:20:32.605Z,58.14
2022-10-11T04:25:46.067Z,57.80
2022-10-11T04:30:58.809Z,57.52
2022-10-11T04:36:12.038Z,56.91
2022-10-11T04:41:25.632Z,57.02
2022-10-11T04:46:37.261Z,56.45
2022-10-11T04:51:51.073Z,56.23
2022-10-11T04:57:06.020Z,56.05
2022-10-11T05:02:21.339Z,56.15
2022-10-11T05:07:35.659Z,55.94
2022-10-11T05:12:49.745Z,55.98
2022-10-11T05:18:04.722Z,55.88
2022-10-11T05:23:19.725Z,55.83
2022-10-11T05:28:34.818Z,55.69
2022-10-11T05:33:47.831Z,56.75
2022-10-11T05:39:00.905Z,56.48
2022-10-11T05:44:14.260Z,56.36
2022-10-11T05:49:28.334Z,55.31
2022-10-11T05:54:43.308Z,55.43
2022-10-11T05:59:56.119Z,55.07
2022-10-11T06:05:10.514Z,55.88
2022-10-11T06:10:25.313Z,56.50
2022-10-11T06:15:41.185Z,57.71
2022-10-11T06:21:08.822Z,58.69
2022-10-11T06:26:36.091Z,60.89
2022-10-11T06:32:07.270Z,63.78
2022-10-11T06:37:38.349Z,66.79
2022-10-11T06:43:09.092Z,69.29
2022-10-11T06:48:21.528Z,70.87
2022-10-11T06:53:53.200Z,71.76
2022-10-11T06:59:05.938Z,73.24
2022-10-11T07:04:36.359Z,73.91
2022-10-11T07:10:16.642Z,75.11
2022-10-11T07:15:45.122Z,76.15
2022-10-11T07:21:16.905Z,77.50
2022-10-11T07:26:49.148Z,78.32
2022-10-11T07:32:18.247Z,78.87
2022-10-11T07:37:30.159Z,79.81
2022-10-11T07:42:41.889Z,80.40
2022-10-11T07:48:09.567Z,80.79
2022-10-11T07:53:54.776Z,82.16
2022-10-11T07:59:22.092Z,82.31
2022-10-11T08:04:49.846Z,83.58
2022-10-11T08:10:20.763Z,84.16
2022-10-11T08:15:51.746Z,84.95
2022-10-11T08:21:20.771Z,85.50
2022-10-11T08:27:04.798Z,86.60
2022-10-11T08:32:17.879Z,86.98
2022-10-11T08:37:29.558Z,86.97
2022-10-11T08:43:06.030Z,87.81
2022-10-11T08:48:46.613Z,88.85
2022-10-11T08:54:48.200Z,89.34
2022-10-11T09:00:20.053Z,89.49
2022-10-11T09:05:35.929Z,89.63
2022-10-11T09:11:14.063Z,90.10
2022-10-11T09:16:36.349Z,90.08
2022-10-11T09:21:56.633Z,90.46
2022-10-11T09:27:10.185Z,90.96
2022-10-11T09:32:21.216Z,91.42
2022-10-11T09:38:06.883Z,91.87
2022-10-11T09:43:09.851Z,92.03
2022-10-11T09:48:17.674Z,92.46
2022-10-11T09:53:22.072Z,92.75
2022-10-11T09:58:36.005Z,93.25
2022-10-11T10:03:43.907Z,93.40
2022-10-11T10:08:48.006Z,93.39
2022-10-11T10:13:54.019Z,93.28
2022-10-11T10:19:02.544Z,93.25
2022-10-11T10:24:30.730Z,93.83
2022-10-11T10:29:33.741Z,93.60
2022-10-11T10:34:39.459Z,93.60
2022-10-11T10:39:50.183Z,93.69
2022-10-11T10:44:58.837Z,93.99
2022-10-11T10:50:27.288Z,94.10
2022-10-11T10:55:46.740Z,94.23
2022-10-11T11:00:52.498Z,94.38
2022-10-11T11:06:03.492Z,93.79
2022-10-11T11:11:44.014Z,93.70
2022-10-11T11:17:06.302Z,93.61
2022-10-11T11:22:21.064Z,93.36
2022-10-11T11:28:06.769Z,93.04
2022-10-11T11:33:33.600Z,92.76
2022-10-11T11:38:51.040Z,92.78
2022-10-11T11:44:48.195Z,92.48
2022-10-11T11:50:04.672Z,92.37
2022-10-11T11:55:10.037Z,92.30
2022-10-11T12:00:16.696Z,92.44
2022-10-11T12:05:26.251Z,92.10
2022-10-11T12:10:55.357Z,92.19
2022-10-11T12:16:04.264Z,92.26
2022-10-11T12:21:17.993Z,92.17
2022-10-11T12:26:30.140Z,92.07
2022-10-11T12:31:35.953Z,92.10
2022-10-11T12:36:40.423Z,92.52
2022-10-11T12:41:53.892Z,92.21
2022-10-11T12:46:59.752Z,92.19
2022-10-11T12:52:05.210Z,91.86
2022-10-11T12:57:35.618Z,92.24
2022-10-11T13:02:43.117Z,92.32
2022-10-11T13:07:47.404Z,92.10
2022-10-11T13:12:50.986Z,92.16
2022-10-11T13:18:02.229Z,91.99
2022-10-11T13:23:04.937Z,91.54
2022-10-11T13:28:09.353Z,92.06
2022-10-11T13:33:24.747Z,91.13
2022-10-11T13:38:33.883Z,91.55
2022-10-11T13:43:37.161Z,91.18
2022-10-11T13:48:41.336Z,91.22
2022-10-11T13:54:02.439Z,90.38
2022-10-11T13:59:05.454Z,90.28
2022-10-11T14:04:15.823Z,89.71
2022-10-11T14:09:22.552Z,89.95
2022-10-11T14:14:41.165Z,89.85
2022-10-11T14:19:45.733Z,89.63
2022-10-11T14:24:49.099Z,89.47
2022-10-11T14:30:19.827Z,89.34
2022-10-11T14:35:17.750Z,89.07
2022-10-11T14:40:25.558Z,88.78
2022-10-11T14:45:28.324Z,88.89
2022-10-11T14:50:31.054Z,88.71
2022-10-11T14:55:36.300Z,88.57
2022-10-11T15:00:39.037Z,88.36
2022-10-11T15:05:41.731Z,88.82
2022-10-11T15:10:44.519Z,89.34
2022-10-11T15:15:47.318Z,89.92
2022-10-11T15:20:51.706Z,90.15
2022-10-11T15:25:54.621Z,90.04
2022-10-11T15:30:58.018Z,90.43
2022-10-11T15:36:00.686Z,90.22
2022-10-11T15:41:03.618Z,90.16
2022-10-11T15:46:07.107Z,90.32
2022-10-11T15:51:10.229Z,90.11
2022-10-11T15:56:19.328Z,90.38
2022-10-11T16:01:22.049Z,90.47
2022-10-11T16:06:24.764Z,90.39
2022-10-11T16:11:27.572Z,90.46
2022-10-11T16:16:30.262Z,90.72
2022-10-11T16:21:33.079Z,90.82
2022-10-11T16:26:35.822Z,91.13
2022-10-11T16:31:38.541Z,91.82
2022-10-11T16:36:41.294Z,92.12
2022-10-11T16:41:44.088Z,92.41
2022-10-11T16:46:50.486Z,92.99
2022-10-11T16:51:55.672Z,93.27
2022-10-11T16:56:59.635Z,93.62
2022-10-11T17:02:02.389Z,93.96
2022-10-11T17:07:12.521Z,94.03
2022-10-11T17:12:17.387Z,93.78
2022-10-11T17:17:20.868Z,93.82
2022-10-11T17:22:23.618Z,93.58
2022-10-11T17:27:26.543Z,93.89
2022-10-11T17:32:29.231Z,93.87
2022-10-11T17:37:31.992Z,93.92
2022-10-11T17:42:34.902Z,94.44
2022-10-11T17:47:37.818Z,94.19
2022-10-11T17:52:40.542Z,94.54
2022-10-11T17:57:43.306Z,94.64
2022-10-11T18:02:46.005Z,94.84
2022-10-11T18:07:53.139Z,94.65
2022-10-11T18:12:55.894Z,94.79
2022-10-11T18:17:59.917Z,94.87
2022-10-11T18:23:02.843Z,95.15
2022-10-11T18:28:05.646Z,95.42
2022-10-11T18:33:08.311Z,95.62
2022-10-11T18:38:10.956Z,96.50
2022-10-11T18:43:13.878Z,97.33
2022-10-11T18:48:16.655Z,98.42
2022-10-11T18:53:19.318Z,99.19
2022-10-11T18:58:22.012Z,99.15
2022-10-11T19:03:24.759Z,98.72
2022-10-11T19:08:28.193Z,99.36
2022-10-11T19:13:30.972Z,100.00
2022-10-11T19:18:33.782Z,100.00
2022-10-11T19:23:41.999Z,100.00
2022-10-11T19:28:45.638Z,100.00
2022-10-11T19:33:49.876Z,100.00
2022-10-11T19:38:57.003Z,100.00
2022-10-11T19:43:59.980Z,100.00
2022-10-11T19:49:03.153Z,100.00
2022-10-11T19:54:08.383Z,100.00
2022-10-11T19:59:12.405Z,100.00
2022-10-11T20:04:33.526Z,100.00
2022-10-11T20:09:37.985Z,100.00
2022-10-11T20:14:40.685Z,100.00
2022-10-11T20:19:43.410Z,100.00
2022-10-11T20:24:46.113Z,100.00
2022-10-11T20:29:49.300Z,100.00
2022-10-11T20:34:52.020Z,100.00
2022-10-11T20:39:54.949Z,100.00
2022-10-11T20:44:57.647Z,100.00
2022-10-11T20:50:00.384Z,100.00
2022-10-11T20:55:04.556Z,100.00
2022-10-11T21:00:08.083Z,100.00
2022-10-11T21:05:11.686Z,100.00
2022-10-11T21:10:14.504Z,100.00
2022-10-11T21:15:17.187Z,100.00
2022-10-11T21:20:19.906Z,100.00
2022-10-11T21:25:23.481Z,100.00
2022-10-11T21:30:26.265Z,100.00
2022-10-11T21:35:30.109Z,100.00
2022-10-11T21:40:32.756Z,100.00
2022-10-11T21:45:38.988Z,100.00
2022-10-11T21:50:42.197Z,100.00
2022-10-11T21:55:44.849Z,100.00
2022-10-11T22:00:47.529Z,100.00
2022-10-11T22:05:50.355Z,100.00
2022-10-11T22:10:57.763Z,100.00
2022-10-11T22:16:04.912Z,100.00
2022-10-11T22:21:14.836Z,100.00
2022-10-11T22:26:19.660Z,100.00
2022-10-11T22:31:23.457Z,100.00
2022-10-11T22:36:27.482Z,100.00
2022-10-11T22:41:30.366Z,100.00
2022-10-11T22:46:33.403Z,100.00
2022-10-11T22:51:36.093Z,100.00
2022-10-11T22:56:38.772Z,100.00
2022-10-11T23:01:41.551Z,100.00
2022-10-11T23:06:44.616Z,100.00
2022-10-11T23:11:47.427Z,100.00
2022-10-11T23:16:53.524Z,100.00
2022-10-11T23:21:56.835Z,100.00
2022-10-11T23:26:59.526Z,100.00
2022-10-11T23:32:02.379Z,100.00
2022-10-11T23:37:05.612Z,100.00
2022-10-11T23:42:08.363Z,100.00
2022-10-11T23:47:11.049Z,100.00
2022-10-11T23:52:13.640Z,100.00
2022-10-11T23:57:16.289Z,100.00
